createdAt,value
2017-09-17T00:01:00.189Z,5.90
2017-09-17T00:03:27.616Z,5.93
2017-09-17T00:05:55.467Z,6.17
2017-09-17T00:08:22.892Z,5.50
2017-09-17T00:10:50.369Z,4.77
2017-09-17T00:13:17.813Z,5.80
2017-09-17T00:15:45.262Z,5.33
2017-09-17T00:18:12.740Z,6.43
2017-09-17T00:20:40.200Z,7.57
2017-09-17T00:23:07.630Z,6.80
2017-09-17T00:25:35.349Z,7.40
2017-09-17T00:28:02.812Z,6.00
2017-09-17T00:30:30.295Z,6.57
2017-09-17T00:32:58.031Z,7.23
2017-09-17T00:35:25.538Z,5.83
2017-09-17T00:37:53.450Z,7.10
2017-09-17T00:40:21.234Z,10.77
2017-09-17T00:42:48.688Z,7.57
2017-09-17T00:45:16.157Z,5.20
2017-09-17T00:47:43.616Z,5.03
2017-09-17T00:50:11.058Z,5.20
2017-09-17T00:52:38.525Z,7.20
2017-09-17T00:55:06.222Z,5.53
2017-09-17T00:57:33.687Z,5.47
2017-09-17T01:00:01.130Z,4.93
2017-09-17T01:02:28.652Z,5.20
2017-09-17T01:04:56.113Z,5.97
2017-09-17T01:07:23.976Z,6.40
2017-09-17T01:09:51.860Z,6.23
2017-09-17T01:12:19.868Z,6.50
2017-09-17T01:14:47.484Z,5.87
2017-09-17T01:17:14.923Z,5.20
2017-09-17T01:19:42.512Z,5.97
2017-09-17T01:22:10.142Z,7.27
2017-09-17T01:24:37.711Z,5.00
2017-09-17T01:27:05.195Z,5.23
2017-09-17T01:29:32.704Z,8.50
2017-09-17T01:32:00.288Z,7.77
2017-09-17T01:34:27.805Z,6.20
2017-09-17T01:36:55.723Z,6.20
2017-09-17T01:39:23.160Z,7.57
2017-09-17T01:41:50.625Z,5.23
2017-09-17T01:44:18.114Z,7.93
2017-09-17T01:46:46.402Z,6.57
2017-09-17T01:49:13.867Z,5.80
2017-09-17T01:51:41.356Z,5.60
2017-09-17T01:54:08.867Z,5.97
2017-09-17T01:56:36.324Z,7.77
2017-09-17T01:59:03.815Z,5.63
2017-09-17T02:01:31.464Z,5.47
2017-09-17T02:03:58.925Z,5.47
2017-09-17T02:06:26.404Z,6.73
2017-09-17T02:08:54.191Z,6.90
2017-09-17T02:11:21.625Z,5.83
2017-09-17T02:13:49.114Z,5.00
2017-09-17T02:16:16.685Z,5.60
2017-09-17T02:18:45.028Z,7.67
2017-09-17T02:21:12.487Z,5.43
2017-09-17T02:23:40.065Z,9.70
2017-09-17T02:26:07.521Z,5.40
2017-09-17T02:28:34.995Z,7.63
2017-09-17T02:31:02.467Z,5.67
2017-09-17T02:33:29.894Z,6.10
2017-09-17T02:35:57.446Z,6.37
2017-09-17T02:38:24.910Z,6.10
2017-09-17T02:40:52.422Z,6.77
2017-09-17T02:43:19.876Z,5.77
2017-09-17T02:45:47.331Z,6.60
2017-09-17T02:48:14.796Z,7.50
2017-09-17T02:50:42.565Z,8.17
2017-09-17T02:53:10.029Z,6.10
2017-09-17T02:55:38.020Z,9.27
2017-09-17T02:58:05.479Z,7.17
2017-09-17T03:00:32.927Z,6.93
2017-09-17T03:03:00.474Z,7.77
2017-09-17T03:05:27.955Z,16.10
2017-09-17T03:07:55.417Z,7.70
2017-09-17T03:10:23.095Z,6.90
2017-09-17T03:12:50.648Z,7.83
2017-09-17T03:15:18.094Z,9.23
2017-09-17T03:17:45.554Z,6.90
2017-09-17T03:20:13.053Z,7.97
2017-09-17T03:22:40.901Z,7.83
2017-09-17T03:25:08.350Z,8.70
2017-09-17T03:27:36.014Z,9.53
2017-09-17T03:30:03.489Z,8.27
2017-09-17T03:32:31.329Z,10.33
2017-09-17T03:34:58.773Z,8.73
2017-09-17T03:37:27.206Z,10.17
2017-09-17T03:39:54.673Z,9.20
2017-09-17T03:42:23.916Z,8.33
2017-09-17T03:44:51.397Z,10.33
2017-09-17T03:47:18.905Z,10.00
2017-09-17T03:49:46.343Z,9.63
2017-09-17T03:52:14.256Z,9.47
2017-09-17T03:54:41.775Z,9.60
2017-09-17T03:57:09.281Z,10.43
2017-09-17T03:59:39.699Z,11.03
2017-09-17T04:02:07.176Z,9.13
2017-09-17T04:04:35.099Z,9.00
2017-09-17T04:07:02.643Z,13.40
2017-09-17T04:09:30.108Z,11.70
2017-09-17T04:11:57.608Z,12.07
2017-09-17T04:14:25.073Z,11.90
2017-09-17T04:16:52.513Z,11.83
2017-09-17T04:19:19.938Z,12.00
2017-09-17T04:21:47.432Z,14.67
2017-09-17T04:24:14.882Z,21.97
2017-09-17T04:26:42.348Z,20.30
2017-09-17T04:29:10.004Z,20.27
2017-09-17T04:31:37.434Z,22.47
2017-09-17T04:34:05.350Z,24.20
2017-09-17T04:36:32.767Z,23.27
2017-09-17T04:39:00.616Z,25.10
2017-09-17T04:41:28.245Z,26.97
2017-09-17T04:43:55.675Z,25.47
2017-09-17T04:46:23.577Z,27.03
2017-09-17T04:48:51.288Z,25.90
2017-09-17T04:51:18.719Z,26.90
2017-09-17T04:53:46.168Z,30.40
2017-09-17T04:56:13.625Z,27.77
2017-09-17T04:58:41.089Z,26.67
2017-09-17T05:01:08.849Z,25.23
2017-09-17T05:03:36.330Z,22.20
2017-09-17T05:06:03.794Z,29.83
2017-09-17T05:08:31.250Z,29.20
2017-09-17T05:10:58.716Z,26.00
2017-09-17T05:13:26.171Z,25.60
2017-09-17T05:15:53.627Z,26.00
2017-09-17T05:18:21.067Z,28.27
2017-09-17T05:20:48.500Z,25.23
2017-09-17T05:23:16.221Z,29.63
2017-09-17T05:25:43.658Z,29.93
2017-09-17T05:28:11.144Z,26.87
2017-09-17T05:30:38.620Z,33.93
2017-09-17T05:33:06.060Z,27.90
2017-09-17T05:35:33.483Z,27.47
2017-09-17T05:38:01.358Z,25.70
2017-09-17T05:40:29.177Z,27.07
2017-09-17T05:42:56.621Z,28.60
2017-09-17T05:45:24.106Z,23.93
2017-09-17T05:47:53.551Z,22.07
2017-09-17T05:50:21.391Z,22.80
2017-09-17T05:52:48.945Z,24.63
2017-09-17T05:55:16.373Z,19.30
2017-09-17T05:57:43.811Z,23.70
2017-09-17T06:00:11.731Z,26.27
2017-09-17T06:02:39.184Z,22.07
2017-09-17T06:05:06.854Z,24.53
2017-09-17T06:07:34.317Z,27.33
2017-09-17T06:10:01.776Z,26.87
2017-09-17T06:12:29.242Z,26.53
2017-09-17T06:14:56.783Z,25.97
2017-09-17T06:17:24.304Z,22.57
2017-09-17T06:19:51.850Z,28.60
2017-09-17T06:22:19.327Z,22.90
2017-09-17T06:24:46.864Z,28.73
2017-09-17T06:27:14.454Z,27.17
2017-09-17T06:29:43.034Z,27.17
2017-09-17T06:32:10.585Z,30.83
2017-09-17T06:34:38.085Z,31.03
2017-09-17T06:37:05.533Z,25.60
2017-09-17T06:39:33.011Z,25.53
2017-09-17T06:42:00.443Z,26.20
2017-09-17T06:44:27.907Z,29.20
2017-09-17T06:46:55.572Z,24.80
2017-09-17T06:49:23.068Z,27.97
2017-09-17T06:51:50.545Z,28.73
2017-09-17T06:54:18.424Z,30.57
2017-09-17T06:56:45.894Z,27.10
2017-09-17T06:59:13.365Z,30.77
2017-09-17T07:01:40.874Z,31.07
2017-09-17T07:04:08.419Z,35.30
2017-09-17T07:06:36.174Z,30.60
2017-09-17T07:09:03.671Z,30.47
2017-09-17T07:11:31.237Z,31.13
2017-09-17T07:13:58.742Z,29.10
2017-09-17T07:16:26.436Z,32.40
2017-09-17T07:18:53.946Z,31.27
2017-09-17T07:21:21.479Z,37.87
2017-09-17T07:23:48.981Z,26.27
2017-09-17T07:26:16.809Z,31.10
2017-09-17T07:28:44.304Z,27.23
2017-09-17T07:31:12.222Z,25.83
2017-09-17T07:33:39.686Z,29.70
2017-09-17T07:36:07.154Z,28.87
2017-09-17T07:38:34.656Z,27.53
2017-09-17T07:41:02.136Z,30.10
2017-09-17T07:43:30.608Z,27.07
2017-09-17T07:45:58.043Z,24.93
2017-09-17T07:48:25.539Z,23.57
2017-09-17T07:50:53.232Z,27.63
2017-09-17T07:53:20.687Z,28.67
2017-09-17T07:55:48.367Z,29.83
2017-09-17T07:58:15.977Z,33.20
2017-09-17T08:00:43.397Z,33.30
2017-09-17T08:03:10.884Z,32.43
2017-09-17T08:05:38.434Z,32.87
2017-09-17T08:08:05.932Z,32.53
2017-09-17T08:10:33.418Z,29.20
2017-09-17T08:13:01.457Z,29.87
2017-09-17T08:15:28.951Z,29.13
2017-09-17T08:17:56.822Z,30.33
2017-09-17T08:20:24.899Z,23.23
2017-09-17T08:22:52.749Z,30.90
2017-09-17T08:25:20.211Z,25.40
2017-09-17T08:27:47.707Z,22.47
2017-09-17T08:30:15.568Z,23.37
2017-09-17T08:32:43.405Z,19.40
2017-09-17T08:35:11.000Z,20.30
2017-09-17T08:37:38.860Z,19.90
2017-09-17T08:40:06.311Z,17.07
2017-09-17T08:42:33.861Z,20.40
2017-09-17T08:45:01.308Z,25.00
2017-09-17T08:47:28.783Z,23.83
2017-09-17T08:49:56.543Z,24.40
2017-09-17T08:52:23.967Z,22.00
2017-09-17T08:54:51.422Z,20.37
2017-09-17T08:57:19.301Z,23.93
2017-09-17T08:59:46.756Z,19.67
2017-09-17T09:02:14.697Z,18.30
2017-09-17T09:04:42.202Z,21.73
2017-09-17T09:07:09.676Z,23.50
2017-09-17T09:09:37.138Z,23.93
2017-09-17T09:12:04.673Z,23.13
2017-09-17T09:14:32.205Z,19.83
2017-09-17T09:16:59.647Z,21.67
2017-09-17T09:19:27.305Z,20.03
2017-09-17T09:21:54.780Z,16.87
2017-09-17T09:24:22.209Z,23.53
2017-09-17T09:26:49.683Z,20.17
2017-09-17T09:29:17.170Z,16.17
2017-09-17T09:31:44.656Z,19.87
2017-09-17T09:34:13.029Z,18.17
2017-09-17T09:36:40.477Z,16.37
2017-09-17T09:39:07.944Z,17.30
2017-09-17T09:41:35.465Z,20.70
2017-09-17T09:44:02.934Z,16.67
2017-09-17T09:46:30.461Z,24.07
2017-09-17T09:48:58.377Z,16.80
2017-09-17T09:51:25.807Z,17.83
2017-09-17T09:53:53.747Z,19.17
2017-09-17T09:56:21.259Z,18.83
2017-09-17T09:58:48.743Z,19.00
2017-09-17T10:01:16.211Z,14.60
2017-09-17T10:03:43.695Z,13.83
2017-09-17T10:06:11.600Z,15.57
2017-09-17T10:08:39.060Z,15.80
2017-09-17T10:11:06.984Z,15.60
2017-09-17T10:13:34.504Z,18.80
2017-09-17T10:16:02.554Z,16.30
2017-09-17T10:18:30.075Z,18.33
2017-09-17T10:20:57.629Z,15.20
2017-09-17T10:23:25.290Z,12.53
2017-09-17T10:25:52.833Z,12.33
2017-09-17T10:28:21.000Z,12.23
2017-09-17T10:30:48.493Z,11.73
2017-09-17T10:33:16.011Z,12.17
2017-09-17T10:35:43.613Z,13.63
2017-09-17T10:38:11.885Z,13.70
2017-09-17T10:40:39.808Z,10.57
2017-09-17T10:43:07.502Z,11.73
2017-09-17T10:45:34.986Z,5.60
2017-09-17T10:48:02.622Z,5.47
2017-09-17T10:50:30.124Z,5.80
2017-09-17T10:52:58.031Z,7.10
2017-09-17T10:55:25.537Z,4.27
2017-09-17T10:57:53.920Z,4.40
2017-09-17T11:00:21.418Z,5.47
2017-09-17T11:02:48.929Z,3.40
2017-09-17T11:05:16.452Z,6.63
2017-09-17T11:07:44.007Z,4.73
2017-09-17T11:10:11.485Z,3.90
2017-09-17T11:12:38.972Z,3.60
2017-09-17T11:15:06.401Z,4.00
2017-09-17T11:17:33.912Z,3.40
2017-09-17T11:20:01.336Z,3.50
2017-09-17T11:22:28.800Z,4.40
2017-09-17T11:24:56.322Z,4.17
2017-09-17T11:27:24.184Z,1.53
2017-09-17T11:29:52.129Z,1.70
2017-09-17T11:32:19.626Z,2.10
2017-09-17T11:34:47.496Z,3.23
2017-09-17T11:37:15.388Z,2.57
2017-09-17T11:39:42.868Z,2.07
2017-09-17T11:42:10.371Z,1.93
2017-09-17T11:44:38.173Z,2.50
2017-09-17T11:47:06.024Z,2.70
2017-09-17T11:49:33.481Z,3.80
2017-09-17T11:52:01.401Z,1.20
2017-09-17T11:54:29.056Z,1.63
2017-09-17T11:56:56.557Z,1.50
2017-09-17T11:59:24.110Z,1.47
2017-09-17T12:01:51.681Z,13.70
2017-09-17T12:04:19.282Z,2.70
2017-09-17T12:06:46.772Z,1.77
2017-09-17T12:09:14.805Z,1.40
2017-09-17T12:11:42.366Z,3.60
2017-09-17T12:14:09.838Z,1.70
2017-09-17T12:16:37.323Z,2.20
2017-09-17T12:19:05.465Z,1.40
2017-09-17T12:21:32.994Z,1.70
2017-09-17T12:24:00.530Z,1.73
2017-09-17T12:26:28.297Z,1.50
2017-09-17T12:28:56.447Z,1.33
2017-09-17T12:31:23.969Z,2.30
2017-09-17T12:33:52.271Z,1.67
2017-09-17T12:36:20.424Z,1.23
2017-09-17T12:38:47.960Z,3.03
2017-09-17T12:41:15.877Z,1.43
2017-09-17T12:43:43.360Z,1.50
2017-09-17T12:46:10.856Z,1.00
2017-09-17T12:48:38.514Z,2.87
2017-09-17T12:51:06.470Z,2.60
2017-09-17T12:53:33.985Z,1.50
2017-09-17T12:56:01.413Z,1.70
2017-09-17T12:58:29.600Z,1.47
2017-09-17T13:00:57.809Z,1.83
2017-09-17T13:03:25.881Z,3.10
2017-09-17T13:05:53.776Z,1.60
2017-09-17T13:08:21.333Z,2.20
2017-09-17T13:10:48.964Z,2.00
2017-09-17T13:13:16.576Z,1.80
2017-09-17T13:15:44.404Z,1.57
2017-09-17T13:18:12.647Z,2.07
2017-09-17T13:20:40.217Z,1.87
2017-09-17T13:23:08.026Z,1.70
2017-09-17T13:25:36.145Z,1.60
2017-09-17T13:28:04.825Z,1.60
2017-09-17T13:30:32.395Z,2.03
2017-09-17T13:32:59.917Z,0.90
2017-09-17T13:35:27.746Z,2.77
2017-09-17T13:37:55.280Z,1.23
2017-09-17T13:40:22.850Z,1.47
2017-09-17T13:42:50.360Z,1.73
2017-09-17T13:45:18.281Z,1.63
2017-09-17T13:47:46.050Z,1.40
2017-09-17T13:50:13.703Z,1.83
2017-09-17T13:52:56.100Z,1.87
2017-09-17T13:55:25.225Z,1.10
2017-09-17T13:57:52.837Z,1.40
2017-09-17T14:00:21.328Z,0.87
2017-09-17T14:02:50.911Z,1.33
2017-09-17T14:05:24.345Z,1.77
2017-09-17T14:08:09.724Z,2.37
2017-09-17T14:10:40.778Z,1.57
2017-09-17T14:13:08.926Z,1.33
2017-09-17T14:15:37.158Z,1.37
2017-09-17T14:18:04.745Z,1.23
2017-09-17T14:20:32.258Z,1.90
2017-09-17T14:22:59.979Z,1.20
2017-09-17T14:25:27.467Z,3.10
2017-09-17T14:27:55.556Z,6.93
2017-09-17T14:30:23.892Z,4.60
2017-09-17T14:32:51.500Z,4.50
2017-09-17T14:35:19.073Z,3.83
2017-09-17T14:37:46.836Z,1.43
2017-09-17T14:40:14.605Z,1.23
2017-09-17T14:42:42.132Z,5.33
2017-09-17T14:45:10.345Z,2.50
2017-09-17T14:47:37.823Z,1.87
2017-09-17T14:50:05.323Z,3.37
2017-09-17T14:52:33.037Z,2.40
2017-09-17T14:55:00.641Z,2.07
2017-09-17T14:57:28.161Z,28.33
2017-09-17T14:59:55.717Z,2.40
2017-09-17T15:02:24.995Z,3.80
2017-09-17T15:04:52.504Z,1.33
2017-09-17T15:07:19.993Z,2.60
2017-09-17T15:09:47.554Z,5.27
2017-09-17T15:12:15.194Z,1.20
2017-09-17T15:14:42.860Z,1.90
2017-09-17T15:17:10.418Z,1.30
2017-09-17T15:19:39.161Z,1.50
2017-09-17T15:22:07.816Z,1.70
2017-09-17T15:24:36.035Z,1.23
2017-09-17T15:27:03.846Z,1.77
2017-09-17T15:29:32.579Z,2.17
2017-09-17T15:32:00.323Z,2.17
2017-09-17T15:34:28.417Z,3.57
2017-09-17T15:36:56.673Z,3.83
2017-09-17T15:39:24.071Z,1.87
2017-09-17T15:41:51.485Z,3.87
2017-09-17T15:44:19.172Z,2.13
2017-09-17T15:46:46.600Z,2.20
2017-09-17T15:49:14.016Z,4.07
2017-09-17T15:51:41.639Z,1.90
2017-09-17T15:54:09.131Z,1.83
2017-09-17T15:56:36.592Z,2.07
2017-09-17T15:59:04.017Z,3.20
2017-09-17T16:01:31.493Z,2.53
2017-09-17T16:03:59.864Z,4.37
2017-09-17T16:06:27.540Z,4.87
2017-09-17T16:08:54.960Z,5.20
2017-09-17T16:11:22.778Z,4.33
2017-09-17T16:13:50.223Z,2.20
2017-09-17T16:16:17.715Z,4.93
2017-09-17T16:18:45.188Z,2.50
2017-09-17T16:21:12.855Z,2.13
2017-09-17T16:23:40.557Z,2.40
2017-09-17T16:26:07.963Z,3.50
2017-09-17T16:28:35.414Z,5.13
2017-09-17T16:31:02.892Z,5.70
2017-09-17T16:33:30.311Z,4.40
2017-09-17T16:35:58.490Z,2.37
2017-09-17T16:38:25.970Z,2.63
2017-09-17T16:40:53.478Z,1.43
2017-09-17T16:43:21.140Z,2.53
2017-09-17T16:45:48.583Z,4.83
2017-09-17T16:48:15.991Z,8.73
2017-09-17T16:50:44.036Z,3.90
2017-09-17T16:56:02.697Z,3.40
2017-09-17T16:58:30.109Z,4.33
2017-09-17T17:00:57.600Z,6.20
2017-09-17T17:03:25.078Z,3.70
2017-09-17T17:05:52.516Z,5.30
2017-09-17T17:08:19.974Z,3.50
2017-09-17T17:10:47.438Z,4.87
2017-09-17T17:13:14.946Z,4.20
2017-09-17T17:15:42.369Z,4.07
2017-09-17T17:18:09.824Z,2.97
2017-09-17T17:20:37.705Z,5.00
2017-09-17T17:23:05.974Z,4.43
2017-09-17T17:25:34.452Z,4.63
2017-09-17T17:28:01.869Z,5.73
2017-09-17T17:30:29.292Z,6.80
2017-09-17T17:32:56.996Z,7.10
2017-09-17T17:35:24.423Z,5.67
2017-09-17T17:37:51.887Z,4.87
2017-09-17T17:40:19.480Z,4.97
2017-09-17T17:42:46.903Z,6.00
2017-09-17T17:45:14.334Z,5.07
2017-09-17T17:47:41.756Z,5.07
2017-09-17T17:50:09.182Z,7.80
2017-09-17T17:52:36.655Z,9.03
2017-09-17T17:55:04.096Z,8.97
2017-09-17T17:57:31.512Z,6.53
2017-09-17T17:59:58.953Z,7.00
2017-09-17T18:02:26.390Z,6.83
2017-09-17T18:04:53.853Z,9.43
2017-09-17T18:07:21.286Z,6.70
2017-09-17T18:09:49.120Z,6.20
2017-09-17T18:12:16.536Z,7.57
2017-09-17T18:14:43.955Z,4.70
2017-09-17T18:17:11.568Z,4.73
2017-09-17T18:19:39.024Z,3.77
2017-09-17T18:22:06.497Z,4.40
2017-09-17T18:24:33.958Z,6.07
2017-09-17T18:27:01.424Z,5.67
2017-09-17T18:29:28.848Z,4.70
2017-09-17T18:31:56.712Z,3.47
2017-09-17T18:34:26.156Z,3.97
2017-09-17T18:36:53.575Z,5.43
2017-09-17T18:39:21.596Z,6.40
2017-09-17T18:41:49.009Z,7.10
2017-09-17T18:44:16.862Z,4.40
2017-09-17T18:46:44.395Z,3.67
2017-09-17T18:49:11.810Z,2.30
2017-09-17T18:51:39.655Z,4.23
2017-09-17T18:54:07.076Z,2.33
2017-09-17T18:56:34.566Z,2.83
2017-09-17T18:59:02.210Z,2.20
2017-09-17T19:01:29.669Z,2.37
2017-09-17T19:03:57.089Z,2.57
2017-09-17T19:06:25.113Z,2.80
2017-09-17T19:08:52.576Z,2.57
2017-09-17T19:11:19.994Z,2.27
2017-09-17T19:13:47.816Z,2.57
2017-09-17T19:16:15.357Z,3.20
2017-09-17T19:18:42.772Z,3.40
2017-09-17T19:21:10.299Z,7.20
2017-09-17T19:23:37.734Z,3.50
2017-09-17T19:26:05.330Z,4.07
2017-09-17T19:28:32.781Z,3.23
2017-09-17T19:31:00.243Z,2.90
2017-09-17T19:33:27.670Z,2.97
2017-09-17T19:35:55.489Z,2.70
2017-09-17T19:38:23.132Z,3.50
2017-09-17T19:40:50.565Z,2.53
2017-09-17T19:43:18.466Z,3.13
2017-09-17T19:45:46.836Z,4.33
2017-09-17T19:48:14.954Z,2.93
2017-09-17T19:50:42.400Z,6.50
2017-09-17T19:53:16.579Z,3.40
2017-09-17T19:55:44.003Z,3.20
2017-09-17T19:58:11.527Z,3.50
2017-09-17T20:00:38.988Z,4.50
2017-09-17T20:03:06.419Z,3.50
2017-09-17T20:05:34.227Z,4.60
2017-09-17T20:08:01.804Z,4.13
2017-09-17T20:10:29.225Z,5.03
2017-09-17T20:12:56.649Z,4.60
2017-09-17T20:15:25.519Z,5.83
2017-09-17T20:17:52.986Z,2.67
2017-09-17T20:20:20.525Z,3.60
2017-09-17T20:22:48.185Z,3.80
2017-09-17T20:25:15.643Z,3.60
2017-09-17T20:27:43.065Z,3.90
2017-09-17T20:33:01.959Z,4.27
2017-09-17T20:35:29.445Z,3.87
2017-09-17T20:37:56.914Z,5.60
2017-09-17T20:40:24.356Z,5.57
2017-09-17T20:42:51.781Z,4.20
2017-09-17T20:45:19.503Z,4.80
2017-09-17T20:47:46.940Z,4.20
2017-09-17T20:50:14.366Z,5.20
2017-09-17T20:52:41.888Z,4.87
2017-09-17T20:55:09.328Z,3.90
2017-09-17T20:57:36.812Z,3.10
2017-09-17T21:00:04.265Z,3.53
2017-09-17T21:02:31.679Z,3.47
2017-09-17T21:04:59.201Z,3.70
2017-09-17T21:07:26.682Z,6.97
2017-09-17T21:09:54.114Z,4.03
2017-09-17T21:12:21.534Z,3.30
2017-09-17T21:14:50.251Z,4.20
2017-09-17T21:17:17.732Z,3.33
2017-09-17T21:19:45.154Z,3.10
2017-09-17T21:22:13.018Z,4.23
2017-09-17T21:24:40.450Z,3.83
2017-09-17T21:27:07.888Z,5.10
2017-09-17T21:29:35.333Z,3.67
2017-09-17T21:32:02.738Z,4.07
2017-09-17T21:34:30.209Z,3.33
2017-09-17T21:36:57.660Z,4.53
2017-09-17T21:39:25.101Z,9.60
2017-09-17T21:41:52.515Z,10.30
2017-09-17T21:44:20.531Z,7.67
2017-09-17T21:46:48.291Z,5.90
2017-09-17T21:49:15.725Z,4.00
2017-09-17T21:51:43.630Z,4.27
2017-09-17T21:54:11.051Z,7.67
2017-09-17T21:56:38.957Z,4.63
2017-09-17T21:59:06.419Z,3.23
2017-09-17T22:01:33.840Z,5.00
2017-09-17T22:04:01.256Z,3.63
2017-09-17T22:06:28.706Z,3.13
2017-09-17T22:08:56.129Z,3.30
2017-09-17T22:11:23.660Z,3.83
2017-09-17T22:13:51.305Z,3.07
2017-09-17T22:16:18.778Z,3.20
2017-09-17T22:18:46.200Z,3.53
2017-09-17T22:21:13.878Z,4.30
2017-09-17T22:23:41.343Z,2.80
2017-09-17T22:26:08.770Z,3.10
2017-09-17T22:28:36.696Z,4.13
2017-09-17T22:31:04.143Z,2.50
2017-09-17T22:33:31.562Z,3.60
2017-09-17T22:35:59.478Z,3.10
2017-09-17T22:38:26.875Z,2.60
2017-09-17T22:40:54.290Z,3.10
2017-09-17T22:43:21.748Z,4.50
2017-09-17T22:45:49.166Z,4.20
2017-09-17T22:48:16.599Z,4.00
2017-09-17T22:50:44.071Z,4.40
2017-09-17T22:53:11.499Z,4.13
2017-09-17T22:55:38.967Z,3.03
2017-09-17T22:58:06.406Z,5.80
2017-09-17T23:00:34.220Z,3.50
2017-09-17T23:03:01.688Z,3.50
2017-09-17T23:05:29.128Z,3.10
2017-09-17T23:07:56.547Z,3.20
2017-09-17T23:10:24.429Z,3.80
2017-09-17T23:12:52.230Z,4.27
2017-09-17T23:15:19.686Z,3.60
2017-09-17T23:17:47.312Z,5.60
2017-09-17T23:20:15.235Z,3.83
2017-09-17T23:22:42.665Z,4.00
2017-09-17T23:25:10.166Z,4.93
2017-09-17T23:27:38.450Z,3.80
2017-09-17T23:30:05.901Z,4.63
2017-09-17T23:32:33.473Z,4.50
2017-09-17T23:35:00.905Z,4.80
2017-09-17T23:37:28.324Z,5.50
2017-09-17T23:39:55.791Z,6.63
2017-09-17T23:42:23.220Z,7.10
2017-09-17T23:44:50.660Z,4.50
2017-09-17T23:47:18.186Z,5.67
2017-09-17T23:49:45.594Z,5.27
2017-09-17T23:52:13.025Z,4.80
2017-09-17T23:54:41.067Z,5.67
2017-09-17T23:57:08.495Z,4.37
2017-09-17T23:59:35.940Z,4.30
